sensor_id;sensor_type;location;lat;lon;timestamp;P1;durP1;ratioP1;P2;durP2;ratioP2
36597;SDS011;22607;49.550;11.940;2023-02-28T00:00:35;10.18;;;3.13;;
36597;SDS011;22607;49.550;11.940;2023-02-28T00:03:02;8.60;;;2.83;;
36597;SDS011;22607;49.550;11.940;2023-02-28T00:05:29;9.52;;;3.00;;
36597;SDS011;22607;49.550;11.940;2023-02-28T00:07:56;8.63;;;2.92;;
36597;SDS011;22607;49.550;11.940;2023-02-28T00:10:24;8.93;;;3.20;;
36597;SDS011;22607;49.550;11.940;2023-02-28T00:13:00;8.15;;;2.88;;
36597;SDS011;22607;49.550;11.940;2023-02-28T00:15:28;8.43;;;3.15;;
36597;SDS011;22607;49.550;11.940;2023-02-28T00:17:54;8.10;;;3.00;;
36597;SDS011;22607;49.550;11.940;2023-02-28T00:20:21;10.63;;;4.15;;
36597;SDS011;22607;49.550;11.940;2023-02-28T00:22:48;9.65;;;3.25;;
36597;SDS011;22607;49.550;11.940;2023-02-28T00:27:47;11.40;;;3.30;;
36597;SDS011;22607;49.550;11.940;2023-02-28T00:30:16;10.68;;;3.22;;
36597;SDS011;22607;49.550;11.940;2023-02-28T00:32:44;8.83;;;3.20;;
36597;SDS011;22607;49.550;11.940;2023-02-28T00:35:11;8.90;;;3.30;;
36597;SDS011;22607;49.550;11.940;2023-02-28T00:37:38;8.90;;;3.20;;
36597;SDS011;22607;49.550;11.940;2023-02-28T00:40:06;10.68;;;3.50;;
36597;SDS011;22607;49.550;11.940;2023-02-28T00:42:34;8.75;;;3.17;;
36597;SDS011;22607;49.550;11.940;2023-02-28T00:45:03;13.03;;;3.10;;
36597;SDS011;22607;49.550;11.940;2023-02-28T00:47:31;8.03;;;2.73;;
36597;SDS011;22607;49.550;11.940;2023-02-28T00:49:59;9.17;;;3.30;;
36597;SDS011;22607;49.550;11.940;2023-02-28T00:52:26;9.23;;;3.40;;
36597;SDS011;22607;49.550;11.940;2023-02-28T00:54:53;9.65;;;3.17;;
36597;SDS011;22607;49.550;11.940;2023-02-28T00:57:19;12.40;;;3.93;;
36597;SDS011;22607;49.550;11.940;2023-02-28T00:59:46;9.63;;;3.60;;
36597;SDS011;22607;49.550;11.940;2023-02-28T01:02:13;12.73;;;3.27;;
36597;SDS011;22607;49.550;11.940;2023-02-28T01:04:40;9.88;;;3.13;;
36597;SDS011;22607;49.550;11.940;2023-02-28T01:07:07;9.70;;;3.03;;
36597;SDS011;22607;49.550;11.940;2023-02-28T01:09:33;9.85;;;3.72;;
36597;SDS011;22607;49.550;11.940;2023-02-28T01:12:00;9.88;;;3.58;;
36597;SDS011;22607;49.550;11.940;2023-02-28T01:14:26;9.45;;;3.50;;
36597;SDS011;22607;49.550;11.940;2023-02-28T01:16:53;8.73;;;3.20;;
36597;SDS011;22607;49.550;11.940;2023-02-28T01:19:19;8.80;;;2.83;;
36597;SDS011;22607;49.550;11.940;2023-02-28T01:21:49;9.80;;;3.70;;
36597;SDS011;22607;49.550;11.940;2023-02-28T01:24:15;10.80;;;4.00;;
36597;SDS011;22607;49.550;11.940;2023-02-28T01:26:42;17.95;;;7.07;;
36597;SDS011;22607;49.550;11.940;2023-02-28T01:29:08;14.68;;;6.20;;
36597;SDS011;22607;49.550;11.940;2023-02-28T01:31:35;12.18;;;4.78;;
36597;SDS011;22607;49.550;11.940;2023-02-28T01:34:02;14.40;;;8.10;;
36597;SDS011;22607;49.550;11.940;2023-02-28T01:36:29;14.20;;;6.77;;
36597;SDS011;22607;49.550;11.940;2023-02-28T01:38:56;9.30;;;3.75;;
36597;SDS011;22607;49.550;11.940;2023-02-28T01:41:24;9.93;;;3.83;;
36597;SDS011;22607;49.550;11.940;2023-02-28T01:43:57;9.23;;;3.20;;
36597;SDS011;22607;49.550;11.940;2023-02-28T01:46:30;9.60;;;2.93;;
36597;SDS011;22607;49.550;11.940;2023-02-28T01:49:06;10.93;;;3.73;;
36597;SDS011;22607;49.550;11.940;2023-02-28T01:51:41;9.23;;;3.38;;
36597;SDS011;22607;49.550;11.940;2023-02-28T01:54:18;8.03;;;2.97;;
36597;SDS011;22607;49.550;11.940;2023-02-28T01:56:59;10.63;;;3.53;;
36597;SDS011;22607;49.550;11.940;2023-02-28T01:59:32;11.37;;;3.90;;
36597;SDS011;22607;49.550;11.940;2023-02-28T02:02:06;9.93;;;4.87;;
36597;SDS011;22607;49.550;11.940;2023-02-28T02:05:07;9.93;;;3.58;;
36597;SDS011;22607;49.550;11.940;2023-02-28T02:07:32;10.63;;;3.97;;
36597;SDS011;22607;49.550;11.940;2023-02-28T02:10:04;9.77;;;3.33;;
36597;SDS011;22607;49.550;11.940;2023-02-28T02:12:45;10.90;;;4.50;;
36597;SDS011;22607;49.550;11.940;2023-02-28T02:15:22;9.63;;;4.10;;
36597;SDS011;22607;49.550;11.940;2023-02-28T02:17:51;12.50;;;4.33;;
36597;SDS011;22607;49.550;11.940;2023-02-28T02:20:29;10.27;;;4.63;;
36597;SDS011;22607;49.550;11.940;2023-02-28T02:31:26;10.90;;;4.27;;
36597;SDS011;22607;49.550;11.940;2023-02-28T02:39:45;12.20;;;4.53;;
36597;SDS011;22607;49.550;11.940;2023-02-28T02:42:28;11.93;;;4.93;;
36597;SDS011;22607;49.550;11.940;2023-02-28T02:47:52;10.07;;;4.03;;
36597;SDS011;22607;49.550;11.940;2023-02-28T02:50:22;11.27;;;4.97;;
36597;SDS011;22607;49.550;11.940;2023-02-28T02:53:00;12.40;;;4.90;;
36597;SDS011;22607;49.550;11.940;2023-02-28T02:55:29;11.67;;;4.70;;
36597;SDS011;22607;49.550;11.940;2023-02-28T02:58:04;11.82;;;5.25;;
36597;SDS011;22607;49.550;11.940;2023-02-28T03:00:37;12.23;;;4.70;;
36597;SDS011;22607;49.550;11.940;2023-02-28T03:03:08;10.57;;;4.77;;
36597;SDS011;22607;49.550;11.940;2023-02-28T03:05:56;9.87;;;3.93;;
36597;SDS011;22607;49.550;11.940;2023-02-28T03:08:26;9.73;;;3.97;;
36597;SDS011;22607;49.550;11.940;2023-02-28T03:10:56;13.70;;;4.97;;
36597;SDS011;22607;49.550;11.940;2023-02-28T03:16:33;12.23;;;5.53;;
36597;SDS011;22607;49.550;11.940;2023-02-28T03:19:06;12.80;;;5.00;;
36597;SDS011;22607;49.550;11.940;2023-02-28T03:21:38;11.87;;;4.97;;
36597;SDS011;22607;49.550;11.940;2023-02-28T03:24:49;11.53;;;5.03;;
36597;SDS011;22607;49.550;11.940;2023-02-28T03:27:37;13.43;;;5.50;;
36597;SDS011;22607;49.550;11.940;2023-02-28T03:30:17;13.77;;;4.90;;
36597;SDS011;22607;49.550;11.940;2023-02-28T03:32:53;13.73;;;4.93;;
36597;SDS011;22607;49.550;11.940;2023-02-28T03:35:36;18.03;;;5.00;;
36597;SDS011;22607;49.550;11.940;2023-02-28T03:38:18;15.33;;;6.03;;
36597;SDS011;22607;49.550;11.940;2023-02-28T03:41:05;12.93;;;4.80;;
36597;SDS011;22607;49.550;11.940;2023-02-28T03:43:39;12.23;;;5.23;;
36597;SDS011;22607;49.550;11.940;2023-02-28T03:46:10;12.63;;;5.70;;
36597;SDS011;22607;49.550;11.940;2023-02-28T03:48:48;14.52;;;6.05;;
36597;SDS011;22607;49.550;11.940;2023-02-28T03:51:19;13.93;;;6.40;;
36597;SDS011;22607;49.550;11.940;2023-02-28T03:53:50;15.13;;;5.40;;
36597;SDS011;22607;49.550;11.940;2023-02-28T03:59:00;12.07;;;5.70;;
36597;SDS011;22607;49.550;11.940;2023-02-28T04:04:03;13.47;;;6.10;;
36597;SDS011;22607;49.550;11.940;2023-02-28T04:06:31;13.07;;;5.43;;
36597;SDS011;22607;49.550;11.940;2023-02-28T04:08:59;14.63;;;6.23;;
36597;SDS011;22607;49.550;11.940;2023-02-28T04:11:28;11.97;;;5.40;;
36597;SDS011;22607;49.550;11.940;2023-02-28T04:13:59;13.50;;;5.10;;
36597;SDS011;22607;49.550;11.940;2023-02-28T04:16:26;12.30;;;5.50;;
36597;SDS011;22607;49.550;11.940;2023-02-28T04:19:01;12.23;;;5.47;;
36597;SDS011;22607;49.550;11.940;2023-02-28T04:21:32;12.53;;;5.60;;
36597;SDS011;22607;49.550;11.940;2023-02-28T04:24:08;12.60;;;4.87;;
36597;SDS011;22607;49.550;11.940;2023-02-28T04:26:41;11.80;;;5.10;;
36597;SDS011;22607;49.550;11.940;2023-02-28T04:29:10;13.53;;;5.60;;
36597;SDS011;22607;49.550;11.940;2023-02-28T04:31:38;13.93;;;5.17;;
36597;SDS011;22607;49.550;11.940;2023-02-28T04:34:06;12.13;;;5.10;;
36597;SDS011;22607;49.550;11.940;2023-02-28T04:36:33;12.93;;;5.60;;
36597;SDS011;22607;49.550;11.940;2023-02-28T04:39:06;11.23;;;5.13;;
36597;SDS011;22607;49.550;11.940;2023-02-28T04:41:32;11.30;;;4.67;;
36597;SDS011;22607;49.550;11.940;2023-02-28T04:43:59;14.27;;;5.33;;
36597;SDS011;22607;49.550;11.940;2023-02-28T04:46:26;14.77;;;6.00;;
36597;SDS011;22607;49.550;11.940;2023-02-28T04:48:52;12.20;;;5.40;;
36597;SDS011;22607;49.550;11.940;2023-02-28T04:51:21;11.50;;;4.83;;
36597;SDS011;22607;49.550;11.940;2023-02-28T04:53:48;12.57;;;4.83;;
36597;SDS011;22607;49.550;11.940;2023-02-28T04:56:15;12.23;;;5.40;;
36597;SDS011;22607;49.550;11.940;2023-02-28T04:58:43;12.57;;;4.97;;
36597;SDS011;22607;49.550;11.940;2023-02-28T05:01:18;12.10;;;5.00;;
36597;SDS011;22607;49.550;11.940;2023-02-28T05:03:47;12.97;;;5.10;;
36597;SDS011;22607;49.550;11.940;2023-02-28T05:06:15;12.37;;;4.77;;
36597;SDS011;22607;49.550;11.940;2023-02-28T05:08:42;17.63;;;6.97;;
36597;SDS011;22607;49.550;11.940;2023-02-28T05:11:17;11.70;;;4.90;;
36597;SDS011;22607;49.550;11.940;2023-02-28T05:13:47;13.23;;;5.77;;
36597;SDS011;22607;49.550;11.940;2023-02-28T05:16:14;14.83;;;6.13;;
36597;SDS011;22607;49.550;11.940;2023-02-28T05:18:42;13.93;;;6.03;;
36597;SDS011;22607;49.550;11.940;2023-02-28T05:21:23;12.53;;;4.87;;
36597;SDS011;22607;49.550;11.940;2023-02-28T05:23:55;13.97;;;6.07;;
36597;SDS011;22607;49.550;11.940;2023-02-28T05:26:23;13.40;;;6.10;;
36597;SDS011;22607;49.550;11.940;2023-02-28T05:28:50;13.07;;;5.63;;
36597;SDS011;22607;49.550;11.940;2023-02-28T05:31:17;13.63;;;5.73;;
36597;SDS011;22607;49.550;11.940;2023-02-28T05:33:44;12.43;;;5.17;;
36597;SDS011;22607;49.550;11.940;2023-02-28T05:36:10;14.50;;;6.97;;
36597;SDS011;22607;49.550;11.940;2023-02-28T05:38:38;16.33;;;6.67;;
36597;SDS011;22607;49.550;11.940;2023-02-28T05:41:05;15.23;;;6.20;;
36597;SDS011;22607;49.550;11.940;2023-02-28T05:43:35;16.30;;;6.47;;
36597;SDS011;22607;49.550;11.940;2023-02-28T05:46:06;12.87;;;6.00;;
36597;SDS011;22607;49.550;11.940;2023-02-28T05:48:34;14.60;;;6.00;;
36597;SDS011;22607;49.550;11.940;2023-02-28T05:51:03;13.10;;;5.90;;
36597;SDS011;22607;49.550;11.940;2023-02-28T05:53:31;14.10;;;5.60;;
36597;SDS011;22607;49.550;11.940;2023-02-28T05:55:59;14.47;;;6.53;;
36597;SDS011;22607;49.550;11.940;2023-02-28T05:58:26;14.73;;;5.73;;
36597;SDS011;22607;49.550;11.940;2023-02-28T06:00:58;15.52;;;6.43;;
36597;SDS011;22607;49.550;11.940;2023-02-28T06:03:25;14.90;;;6.07;;
36597;SDS011;22607;49.550;11.940;2023-02-28T06:05:52;15.40;;;6.87;;
36597;SDS011;22607;49.550;11.940;2023-02-28T06:08:19;13.20;;;5.97;;
36597;SDS011;22607;49.550;11.940;2023-02-28T06:10:46;14.40;;;6.77;;
36597;SDS011;22607;49.550;11.940;2023-02-28T06:13:12;14.03;;;6.40;;
36597;SDS011;22607;49.550;11.940;2023-02-28T06:15:39;13.00;;;5.57;;
36597;SDS011;22607;49.550;11.940;2023-02-28T06:18:06;13.03;;;5.60;;
36597;SDS011;22607;49.550;11.940;2023-02-28T06:20:32;14.77;;;6.40;;
36597;SDS011;22607;49.550;11.940;2023-02-28T06:22:59;13.50;;;6.00;;
36597;SDS011;22607;49.550;11.940;2023-02-28T06:25:26;19.07;;;9.27;;
36597;SDS011;22607;49.550;11.940;2023-02-28T06:27:54;20.90;;;9.23;;
36597;SDS011;22607;49.550;11.940;2023-02-28T06:30:21;18.57;;;9.03;;
36597;SDS011;22607;49.550;11.940;2023-02-28T06:32:51;14.90;;;6.10;;
36597;SDS011;22607;49.550;11.940;2023-02-28T06:35:18;18.33;;;7.57;;
36597;SDS011;22607;49.550;11.940;2023-02-28T06:37:44;18.47;;;8.77;;
36597;SDS011;22607;49.550;11.940;2023-02-28T06:40:13;19.47;;;8.33;;
36597;SDS011;22607;49.550;11.940;2023-02-28T06:42:40;15.70;;;7.20;;
36597;SDS011;22607;49.550;11.940;2023-02-28T06:45:07;15.33;;;7.03;;
36597;SDS011;22607;49.550;11.940;2023-02-28T06:47:36;13.83;;;6.43;;
36597;SDS011;22607;49.550;11.940;2023-02-28T06:50:11;16.35;;;7.72;;
36597;SDS011;22607;49.550;11.940;2023-02-28T06:52:38;15.35;;;7.25;;
36597;SDS011;22607;49.550;11.940;2023-02-28T06:55:06;14.97;;;6.03;;
36597;SDS011;22607;49.550;11.940;2023-02-28T06:57:34;17.50;;;7.00;;
36597;SDS011;22607;49.550;11.940;2023-02-28T07:00:02;15.17;;;6.10;;
36597;SDS011;22607;49.550;11.940;2023-02-28T07:02:34;13.50;;;5.83;;
36597;SDS011;22607;49.550;11.940;2023-02-28T07:05:02;13.50;;;5.67;;
36597;SDS011;22607;49.550;11.940;2023-02-28T07:07:29;14.33;;;6.47;;
36597;SDS011;22607;49.550;11.940;2023-02-28T07:09:55;14.63;;;6.80;;
36597;SDS011;22607;49.550;11.940;2023-02-28T07:12:22;14.13;;;6.60;;
36597;SDS011;22607;49.550;11.940;2023-02-28T07:14:50;16.23;;;6.50;;
36597;SDS011;22607;49.550;11.940;2023-02-28T07:17:17;18.85;;;7.80;;
36597;SDS011;22607;49.550;11.940;2023-02-28T07:19:43;16.65;;;8.70;;
36597;SDS011;22607;49.550;11.940;2023-02-28T07:22:10;14.57;;;6.97;;
36597;SDS011;22607;49.550;11.940;2023-02-28T07:24:36;16.42;;;6.32;;
36597;SDS011;22607;49.550;11.940;2023-02-28T07:27:04;17.25;;;7.45;;
36597;SDS011;22607;49.550;11.940;2023-02-28T07:29:31;16.17;;;7.70;;
36597;SDS011;22607;49.550;11.940;2023-02-28T07:31:57;14.40;;;6.82;;
36597;SDS011;22607;49.550;11.940;2023-02-28T07:34:24;17.73;;;6.80;;
36597;SDS011;22607;49.550;11.940;2023-02-28T07:36:52;15.98;;;7.68;;
36597;SDS011;22607;49.550;11.940;2023-02-28T07:39:20;16.73;;;7.28;;
36597;SDS011;22607;49.550;11.940;2023-02-28T07:41:47;15.65;;;7.22;;
36597;SDS011;22607;49.550;11.940;2023-02-28T07:44:14;15.55;;;7.07;;
36597;SDS011;22607;49.550;11.940;2023-02-28T07:46:41;15.65;;;7.50;;
36597;SDS011;22607;49.550;11.940;2023-02-28T07:49:07;16.98;;;7.28;;
36597;SDS011;22607;49.550;11.940;2023-02-28T07:51:34;14.82;;;6.70;;
36597;SDS011;22607;49.550;11.940;2023-02-28T07:54:00;13.85;;;6.32;;
36597;SDS011;22607;49.550;11.940;2023-02-28T07:56:27;13.93;;;6.50;;
36597;SDS011;22607;49.550;11.940;2023-02-28T07:58:54;13.77;;;6.10;;
36597;SDS011;22607;49.550;11.940;2023-02-28T08:01:21;14.68;;;6.97;;
36597;SDS011;22607;49.550;11.940;2023-02-28T08:03:48;14.60;;;6.30;;
36597;SDS011;22607;49.550;11.940;2023-02-28T08:06:20;14.88;;;7.10;;
36597;SDS011;22607;49.550;11.940;2023-02-28T08:08:52;15.30;;;7.60;;
36597;SDS011;22607;49.550;11.940;2023-02-28T08:11:19;13.68;;;6.57;;
36597;SDS011;22607;49.550;11.940;2023-02-28T08:13:46;13.07;;;6.30;;
36597;SDS011;22607;49.550;11.940;2023-02-28T08:16:13;15.02;;;7.65;;
36597;SDS011;22607;49.550;11.940;2023-02-28T08:18:44;14.52;;;5.85;;
36597;SDS011;22607;49.550;11.940;2023-02-28T08:21:11;12.45;;;6.15;;
36597;SDS011;22607;49.550;11.940;2023-02-28T08:23:41;12.63;;;6.57;;
36597;SDS011;22607;49.550;11.940;2023-02-28T08:26:07;12.35;;;5.72;;
36597;SDS011;22607;49.550;11.940;2023-02-28T08:28:34;14.63;;;6.50;;
36597;SDS011;22607;49.550;11.940;2023-02-28T08:31:01;13.52;;;6.15;;
36597;SDS011;22607;49.550;11.940;2023-02-28T08:33:32;12.63;;;6.55;;
36597;SDS011;22607;49.550;11.940;2023-02-28T08:36:01;14.05;;;6.20;;
36597;SDS011;22607;49.550;11.940;2023-02-28T08:38:28;14.13;;;6.35;;
36597;SDS011;22607;49.550;11.940;2023-02-28T08:41:02;13.45;;;6.30;;
36597;SDS011;22607;49.550;11.940;2023-02-28T08:43:33;12.77;;;6.60;;
36597;SDS011;22607;49.550;11.940;2023-02-28T08:46:00;13.00;;;6.55;;
36597;SDS011;22607;49.550;11.940;2023-02-28T08:48:28;12.75;;;5.47;;
36597;SDS011;22607;49.550;11.940;2023-02-28T08:53:34;13.80;;;5.80;;
36597;SDS011;22607;49.550;11.940;2023-02-28T08:56:05;14.13;;;6.13;;
36597;SDS011;22607;49.550;11.940;2023-02-28T08:58:34;12.98;;;5.13;;
36597;SDS011;22607;49.550;11.940;2023-02-28T09:01:06;12.93;;;5.45;;
36597;SDS011;22607;49.550;11.940;2023-02-28T09:03:34;11.52;;;5.57;;
36597;SDS011;22607;49.550;11.940;2023-02-28T09:06:04;12.82;;;6.20;;
36597;SDS011;22607;49.550;11.940;2023-02-28T09:08:35;12.38;;;6.65;;
36597;SDS011;22607;49.550;11.940;2023-02-28T09:11:02;13.13;;;5.93;;
36597;SDS011;22607;49.550;11.940;2023-02-28T09:13:36;13.10;;;5.72;;
36597;SDS011;22607;49.550;11.940;2023-02-28T09:16:04;13.07;;;6.25;;
36597;SDS011;22607;49.550;11.940;2023-02-28T09:18:33;14.35;;;6.30;;
36597;SDS011;22607;49.550;11.940;2023-02-28T09:21:10;13.35;;;5.95;;
36597;SDS011;22607;49.550;11.940;2023-02-28T09:23:40;13.57;;;5.47;;
36597;SDS011;22607;49.550;11.940;2023-02-28T09:26:08;14.63;;;6.28;;
36597;SDS011;22607;49.550;11.940;2023-02-28T09:28:39;14.00;;;6.50;;
36597;SDS011;22607;49.550;11.940;2023-02-28T09:31:06;13.25;;;6.60;;
36597;SDS011;22607;49.550;11.940;2023-02-28T09:33:32;15.15;;;6.28;;
36597;SDS011;22607;49.550;11.940;2023-02-28T09:36:00;14.88;;;6.15;;
36597;SDS011;22607;49.550;11.940;2023-02-28T09:38:29;13.70;;;6.25;;
36597;SDS011;22607;49.550;11.940;2023-02-28T09:40:58;14.18;;;6.20;;
36597;SDS011;22607;49.550;11.940;2023-02-28T09:43:33;17.60;;;7.25;;
36597;SDS011;22607;49.550;11.940;2023-02-28T09:48:39;16.13;;;6.57;;
36597;SDS011;22607;49.550;11.940;2023-02-28T09:51:54;13.00;;;6.20;;
36597;SDS011;22607;49.550;11.940;2023-02-28T09:54:04;15.27;;;7.07;;
36597;SDS011;22607;49.550;11.940;2023-02-28T09:56:33;14.07;;;6.75;;
36597;SDS011;22607;49.550;11.940;2023-02-28T10:01:45;16.95;;;7.25;;
36597;SDS011;22607;49.550;11.940;2023-02-28T10:10:22;14.40;;;6.72;;
36597;SDS011;22607;49.550;11.940;2023-02-28T10:12:55;15.90;;;6.68;;
36597;SDS011;22607;49.550;11.940;2023-02-28T10:15:25;13.60;;;5.85;;
36597;SDS011;22607;49.550;11.940;2023-02-28T10:18:00;13.73;;;5.73;;
36597;SDS011;22607;49.550;11.940;2023-02-28T10:20:35;15.02;;;7.90;;
36597;SDS011;22607;49.550;11.940;2023-02-28T10:26:05;12.95;;;6.30;;
36597;SDS011;22607;49.550;11.940;2023-02-28T10:28:38;13.52;;;6.10;;
36597;SDS011;22607;49.550;11.940;2023-02-28T10:31:05;14.07;;;7.20;;
36597;SDS011;22607;49.550;11.940;2023-02-28T10:33:40;14.52;;;6.30;;
36597;SDS011;22607;49.550;11.940;2023-02-28T10:36:08;16.75;;;6.20;;
36597;SDS011;22607;49.550;11.940;2023-02-28T10:38:44;15.27;;;6.55;;
36597;SDS011;22607;49.550;11.940;2023-02-28T10:41:13;15.23;;;7.20;;
36597;SDS011;22607;49.550;11.940;2023-02-28T10:43:44;13.05;;;6.47;;
36597;SDS011;22607;49.550;11.940;2023-02-28T10:46:14;13.75;;;6.38;;
36597;SDS011;22607;49.550;11.940;2023-02-28T10:49:03;13.82;;;6.03;;
36597;SDS011;22607;49.550;11.940;2023-02-28T10:51:38;13.35;;;6.32;;
36597;SDS011;22607;49.550;11.940;2023-02-28T10:54:14;13.27;;;6.28;;
36597;SDS011;22607;49.550;11.940;2023-02-28T10:56:42;17.50;;;6.50;;
36597;SDS011;22607;49.550;11.940;2023-02-28T11:01:45;15.57;;;7.90;;
36597;SDS011;22607;49.550;11.940;2023-02-28T11:06:45;15.02;;;7.20;;
36597;SDS011;22607;49.550;11.940;2023-02-28T11:12:21;13.40;;;7.10;;
36597;SDS011;22607;49.550;11.940;2023-02-28T11:15:20;15.93;;;7.07;;
36597;SDS011;22607;49.550;11.940;2023-02-28T11:18:00;15.77;;;8.38;;
36597;SDS011;22607;49.550;11.940;2023-02-28T11:20:31;15.30;;;7.43;;
36597;SDS011;22607;49.550;11.940;2023-02-28T11:23:00;16.05;;;8.80;;
36597;SDS011;22607;49.550;11.940;2023-02-28T11:25:34;15.85;;;7.97;;
36597;SDS011;22607;49.550;11.940;2023-02-28T11:28:06;15.88;;;7.57;;
36597;SDS011;22607;49.550;11.940;2023-02-28T11:33:28;14.40;;;7.25;;
36597;SDS011;22607;49.550;11.940;2023-02-28T11:35:57;15.13;;;7.38;;
36597;SDS011;22607;49.550;11.940;2023-02-28T11:38:27;16.02;;;8.50;;
36597;SDS011;22607;49.550;11.940;2023-02-28T11:40:59;17.02;;;8.88;;
36597;SDS011;22607;49.550;11.940;2023-02-28T11:43:57;14.20;;;6.72;;
36597;SDS011;22607;49.550;11.940;2023-02-28T11:46:38;17.25;;;7.85;;
36597;SDS011;22607;49.550;11.940;2023-02-28T11:49:21;15.15;;;7.47;;
36597;SDS011;22607;49.550;11.940;2023-02-28T11:52:30;14.80;;;7.97;;
36597;SDS011;22607;49.550;11.940;2023-02-28T12:01:24;14.27;;;6.97;;
36597;SDS011;22607;49.550;11.940;2023-02-28T12:06:30;16.70;;;7.68;;
36597;SDS011;22607;49.550;11.940;2023-02-28T12:11:56;15.13;;;7.78;;
36597;SDS011;22607;49.550;11.940;2023-02-28T12:14:50;16.05;;;7.75;;
36597;SDS011;22607;49.550;11.940;2023-02-28T12:17:36;16.58;;;8.23;;
36597;SDS011;22607;49.550;11.940;2023-02-28T12:20:33;15.77;;;7.50;;
36597;SDS011;22607;49.550;11.940;2023-02-28T12:29:02;13.48;;;7.43;;
36597;SDS011;22607;49.550;11.940;2023-02-28T12:31:40;13.75;;;7.18;;
36597;SDS011;22607;49.550;11.940;2023-02-28T12:34:15;16.15;;;7.70;;
36597;SDS011;22607;49.550;11.940;2023-02-28T12:36:47;15.30;;;8.23;;
36597;SDS011;22607;49.550;11.940;2023-02-28T12:39:26;13.48;;;6.68;;
36597;SDS011;22607;49.550;11.940;2023-02-28T12:42:26;15.73;;;7.47;;
36597;SDS011;22607;49.550;11.940;2023-02-28T12:45:01;15.65;;;8.27;;
36597;SDS011;22607;49.550;11.940;2023-02-28T12:47:36;16.65;;;7.05;;
36597;SDS011;22607;49.550;11.940;2023-02-28T12:50:09;14.27;;;7.25;;
36597;SDS011;22607;49.550;11.940;2023-02-28T13:01:08;14.63;;;6.93;;
36597;SDS011;22607;49.550;11.940;2023-02-28T13:14:18;14.82;;;7.53;;
36597;SDS011;22607;49.550;11.940;2023-02-28T13:16:56;14.90;;;7.80;;
36597;SDS011;22607;49.550;11.940;2023-02-28T13:28:01;14.82;;;7.53;;
36597;SDS011;22607;49.550;11.940;2023-02-28T13:33:28;16.73;;;7.72;;
36597;SDS011;22607;49.550;11.940;2023-02-28T13:38:50;15.77;;;7.88;;
36597;SDS011;22607;49.550;11.940;2023-02-28T13:44:05;17.30;;;9.68;;
36597;SDS011;22607;49.550;11.940;2023-02-28T13:51:49;15.18;;;7.65;;
36597;SDS011;22607;49.550;11.940;2023-02-28T13:54:21;14.43;;;7.43;;
36597;SDS011;22607;49.550;11.940;2023-02-28T13:57:03;15.20;;;6.97;;
36597;SDS011;22607;49.550;11.940;2023-02-28T14:02:41;21.92;;;10.27;;
36597;SDS011;22607;49.550;11.940;2023-02-28T14:05:21;15.40;;;8.45;;
36597;SDS011;22607;49.550;11.940;2023-02-28T14:07:55;17.08;;;9.38;;
36597;SDS011;22607;49.550;11.940;2023-02-28T14:15:26;15.05;;;7.75;;
36597;SDS011;22607;49.550;11.940;2023-02-28T14:18:03;16.08;;;7.43;;
36597;SDS011;22607;49.550;11.940;2023-02-28T14:20:39;14.23;;;7.45;;
36597;SDS011;22607;49.550;11.940;2023-02-28T14:23:12;16.23;;;7.55;;
36597;SDS011;22607;49.550;11.940;2023-02-28T14:36:55;14.20;;;7.40;;
36597;SDS011;22607;49.550;11.940;2023-02-28T14:39:26;14.70;;;8.82;;
36597;SDS011;22607;49.550;11.940;2023-02-28T14:41:57;14.93;;;7.18;;
36597;SDS011;22607;49.550;11.940;2023-02-28T14:44:29;17.45;;;9.07;;
36597;SDS011;22607;49.550;11.940;2023-02-28T14:47:01;17.00;;;9.00;;
36597;SDS011;22607;49.550;11.940;2023-02-28T14:49:41;15.50;;;7.72;;
36597;SDS011;22607;49.550;11.940;2023-02-28T14:52:13;17.20;;;8.35;;
36597;SDS011;22607;49.550;11.940;2023-02-28T14:54:54;16.05;;;8.25;;
36597;SDS011;22607;49.550;11.940;2023-02-28T14:57:29;17.83;;;8.25;;
36597;SDS011;22607;49.550;11.940;2023-02-28T14:59:58;15.82;;;8.00;;
36597;SDS011;22607;49.550;11.940;2023-02-28T15:02:46;16.15;;;8.23;;
36597;SDS011;22607;49.550;11.940;2023-02-28T15:07:39;19.45;;;8.85;;
36597;SDS011;22607;49.550;11.940;2023-02-28T15:10:27;17.08;;;7.63;;
36597;SDS011;22607;49.550;11.940;2023-02-28T15:13:01;18.48;;;8.35;;
36597;SDS011;22607;49.550;11.940;2023-02-28T15:15:43;17.25;;;9.13;;
36597;SDS011;22607;49.550;11.940;2023-02-28T15:18:36;16.48;;;8.50;;
36597;SDS011;22607;49.550;11.940;2023-02-28T15:21:25;15.38;;;7.57;;
36597;SDS011;22607;49.550;11.940;2023-02-28T15:23:57;16.52;;;8.52;;
36597;SDS011;22607;49.550;11.940;2023-02-28T15:26:32;16.02;;;8.23;;
36597;SDS011;22607;49.550;11.940;2023-02-28T15:29:04;17.63;;;8.80;;
36597;SDS011;22607;49.550;11.940;2023-02-28T15:31:43;18.30;;;8.80;;
36597;SDS011;22607;49.550;11.940;2023-02-28T15:34:44;26.38;;;12.63;;
36597;SDS011;22607;49.550;11.940;2023-02-28T15:39:57;16.08;;;7.68;;
36597;SDS011;22607;49.550;11.940;2023-02-28T15:42:32;17.52;;;9.38;;
36597;SDS011;22607;49.550;11.940;2023-02-28T15:44:59;17.30;;;8.60;;
36597;SDS011;22607;49.550;11.940;2023-02-28T15:47:29;16.92;;;9.18;;
36597;SDS011;22607;49.550;11.940;2023-02-28T15:55:18;16.38;;;8.50;;
36597;SDS011;22607;49.550;11.940;2023-02-28T15:57:48;15.88;;;7.65;;
36597;SDS011;22607;49.550;11.940;2023-02-28T16:00:23;16.88;;;8.30;;
36597;SDS011;22607;49.550;11.940;2023-02-28T16:02:52;16.83;;;7.72;;
36597;SDS011;22607;49.550;11.940;2023-02-28T16:08:06;16.85;;;8.30;;
36597;SDS011;22607;49.550;11.940;2023-02-28T16:10:42;16.92;;;7.97;;
36597;SDS011;22607;49.550;11.940;2023-02-28T16:13:08;17.15;;;8.70;;
36597;SDS011;22607;49.550;11.940;2023-02-28T16:15:41;16.67;;;7.75;;
36597;SDS011;22607;49.550;11.940;2023-02-28T16:18:12;17.02;;;8.85;;
36597;SDS011;22607;49.550;11.940;2023-02-28T16:20:40;16.95;;;8.73;;
36597;SDS011;22607;49.550;11.940;2023-02-28T16:23:13;16.52;;;8.05;;
36597;SDS011;22607;49.550;11.940;2023-02-28T16:25:41;17.60;;;8.63;;
36597;SDS011;22607;49.550;11.940;2023-02-28T16:28:12;17.77;;;8.65;;
36597;SDS011;22607;49.550;11.940;2023-02-28T16:30:46;15.93;;;7.90;;
36597;SDS011;22607;49.550;11.940;2023-02-28T16:33:13;17.23;;;7.90;;
36597;SDS011;22607;49.550;11.940;2023-02-28T16:35:39;57.95;;;27.63;;
36597;SDS011;22607;49.550;11.940;2023-02-28T16:38:08;17.20;;;8.35;;
36597;SDS011;22607;49.550;11.940;2023-02-28T16:40:35;16.88;;;8.18;;
36597;SDS011;22607;49.550;11.940;2023-02-28T16:43:08;15.60;;;7.15;;
36597;SDS011;22607;49.550;11.940;2023-02-28T16:45:41;17.23;;;7.60;;
36597;SDS011;22607;49.550;11.940;2023-02-28T16:48:10;16.40;;;7.78;;
36597;SDS011;22607;49.550;11.940;2023-02-28T16:50:40;18.23;;;8.15;;
36597;SDS011;22607;49.550;11.940;2023-02-28T16:53:07;15.02;;;7.78;;
36597;SDS011;22607;49.550;11.940;2023-02-28T16:55:34;19.65;;;8.15;;
36597;SDS011;22607;49.550;11.940;2023-02-28T16:58:01;17.33;;;8.68;;
36597;SDS011;22607;49.550;11.940;2023-02-28T17:00:30;15.95;;;7.75;;
36597;SDS011;22607;49.550;11.940;2023-02-28T17:03:00;15.70;;;7.97;;
36597;SDS011;22607;49.550;11.940;2023-02-28T17:05:37;15.73;;;7.75;;
36597;SDS011;22607;49.550;11.940;2023-02-28T17:08:05;16.02;;;7.22;;
36597;SDS011;22607;49.550;11.940;2023-02-28T17:10:34;16.95;;;8.18;;
36597;SDS011;22607;49.550;11.940;2023-02-28T17:15:41;20.25;;;9.35;;
36597;SDS011;22607;49.550;11.940;2023-02-28T17:18:13;19.73;;;10.23;;